createdAt,value
2023-06-30T00:01:18.729Z,97550.00
2023-06-30T00:05:19.872Z,97533.00
2023-06-30T00:09:21.294Z,97538.00
2023-06-30T00:13:22.378Z,97534.00
2023-06-30T00:17:23.799Z,97550.00
2023-06-30T00:21:25.259Z,97543.00
2023-06-30T00:25:26.408Z,97543.00
2023-06-30T00:29:27.551Z,97538.00
2023-06-30T00:33:28.710Z,97539.00
2023-06-30T00:37:29.902Z,97539.00
2023-06-30T00:41:30.919Z,97531.00
2023-06-30T00:45:32.500Z,97530.00
2023-06-30T00:49:34.033Z,97532.00
2023-06-30T00:53:35.406Z,97530.00
2023-06-30T00:57:36.544Z,97532.00
2023-06-30T01:01:41.572Z,97528.00
2023-06-30T01:05:49.216Z,97521.00
2023-06-30T01:10:03.326Z,97519.00
2023-06-30T01:14:07.324Z,97517.00
2023-06-30T01:18:11.089Z,97519.00
2023-06-30T01:22:25.044Z,97497.00
2023-06-30T01:26:26.486Z,97500.00
2023-06-30T01:30:31.080Z,97498.00
2023-06-30T01:34:32.579Z,97492.00
2023-06-30T01:38:33.874Z,97495.00
2023-06-30T01:42:37.445Z,97503.00
2023-06-30T01:46:38.660Z,97497.00
2023-06-30T01:50:40.208Z,97486.00
2023-06-30T01:54:41.527Z,97485.00
2023-06-30T01:58:43.281Z,97485.00
2023-06-30T02:02:44.567Z,97476.00
2023-06-30T02:06:45.719Z,97469.00
2023-06-30T02:10:46.982Z,97474.00
2023-06-30T02:14:48.280Z,97471.00
2023-06-30T02:18:51.391Z,97472.00
2023-06-30T02:22:52.699Z,97474.00
2023-06-30T02:26:54.873Z,97467.00
2023-06-30T02:30:56.303Z,97471.00
2023-06-30T02:34:57.376Z,97476.00
2023-06-30T02:38:58.561Z,97475.00
2023-06-30T02:43:00.125Z,97475.00
2023-06-30T02:47:01.230Z,97474.00
2023-06-30T02:51:02.447Z,97480.00
2023-06-30T02:55:04.041Z,97471.00
2023-06-30T02:59:05.093Z,97477.00
2023-06-30T03:03:06.387Z,97471.00
2023-06-30T03:07:07.499Z,97462.00
2023-06-30T03:11:08.548Z,97465.00
2023-06-30T03:15:10.038Z,97462.00
2023-06-30T03:19:11.089Z,97447.00
2023-06-30T03:23:15.413Z,97476.00
2023-06-30T03:27:16.577Z,97452.00
2023-06-30T03:31:17.986Z,97459.00
2023-06-30T03:35:18.961Z,97458.00
2023-06-30T03:39:20.119Z,97465.00
2023-06-30T03:43:23.009Z,97470.00
2023-06-30T03:47:24.189Z,97482.00
2023-06-30T03:51:25.285Z,97490.00
2023-06-30T03:55:26.432Z,97487.00
2023-06-30T03:59:27.604Z,97485.00
2023-06-30T04:03:28.735Z,97468.00
2023-06-30T04:07:29.979Z,97459.00
2023-06-30T04:11:30.997Z,97459.00
2023-06-30T04:15:32.023Z,97461.00
2023-06-30T04:19:33.173Z,97459.00
2023-06-30T04:23:34.175Z,97466.00
2023-06-30T04:27:36.037Z,97468.00
2023-06-30T04:31:37.066Z,97461.00
2023-06-30T04:35:38.076Z,97470.00
2023-06-30T04:39:39.504Z,97468.00
2023-06-30T04:43:40.834Z,97460.00
2023-06-30T04:47:42.712Z,97466.00
2023-06-30T04:51:43.777Z,97462.00
2023-06-30T04:55:45.503Z,97463.00
2023-06-30T04:59:47.007Z,97454.00
2023-06-30T05:03:48.545Z,97462.00
2023-06-30T05:07:49.873Z,97462.00
2023-06-30T05:11:51.469Z,97459.00
2023-06-30T05:15:52.515Z,97464.00
2023-06-30T05:19:53.839Z,97465.00
2023-06-30T05:23:56.182Z,97460.00
2023-06-30T05:27:57.170Z,97464.00
2023-06-30T05:31:58.524Z,97458.00
2023-06-30T05:35:59.468Z,97452.00
2023-06-30T05:40:00.617Z,97459.00
2023-06-30T05:44:01.710Z,97453.00
2023-06-30T05:48:03.180Z,97457.00
2023-06-30T05:52:04.744Z,97464.00
2023-06-30T05:56:05.754Z,97463.00
2023-06-30T06:00:08.322Z,97464.00
2023-06-30T06:04:11.118Z,97466.00
2023-06-30T06:08:12.394Z,97462.00
2023-06-30T06:12:13.456Z,97471.00
2023-06-30T06:16:14.795Z,97478.00
2023-06-30T06:20:15.840Z,97472.00
2023-06-30T06:24:19.748Z,97481.00
2023-06-30T06:28:21.019Z,97489.00
2023-06-30T06:32:22.058Z,97491.00
2023-06-30T06:36:23.022Z,97490.00
2023-06-30T06:40:24.250Z,97494.00
2023-06-30T06:44:25.267Z,97490.00
2023-06-30T06:48:27.942Z,97488.00
2023-06-30T06:52:29.234Z,97487.00
2023-06-30T06:56:30.403Z,97499.00
2023-06-30T07:00:31.554Z,97496.00
2023-06-30T07:04:32.715Z,97516.00
2023-06-30T07:08:35.709Z,97505.00
2023-06-30T07:12:36.841Z,97504.00
2023-06-30T07:16:38.047Z,97505.00
2023-06-30T07:20:39.302Z,97499.00
2023-06-30T07:24:43.855Z,97502.00
2023-06-30T07:28:43.604Z,97504.00
2023-06-30T07:32:44.833Z,97512.00
2023-06-30T07:36:46.859Z,97514.00
2023-06-30T07:40:55.770Z,97515.00
2023-06-30T07:44:51.013Z,97521.00
2023-06-30T07:48:52.333Z,97532.00
2023-06-30T07:52:53.696Z,97513.00
2023-06-30T07:56:54.881Z,97522.00
2023-06-30T08:00:55.876Z,97524.00
2023-06-30T08:04:57.053Z,97532.00
2023-06-30T08:08:59.155Z,97539.00
2023-06-30T08:13:00.369Z,97547.00
2023-06-30T08:17:01.686Z,97539.00
2023-06-30T08:21:03.778Z,97536.00
2023-06-30T08:25:05.508Z,97530.00
2023-06-30T08:29:06.811Z,97535.00
2023-06-30T08:33:07.950Z,97533.00
2023-06-30T08:37:09.175Z,97544.00
2023-06-30T08:41:11.587Z,97541.00
2023-06-30T08:45:14.145Z,97542.00
2023-06-30T08:49:15.338Z,97539.00
2023-06-30T08:53:19.185Z,97534.00
2023-06-30T08:57:21.617Z,97540.00
2023-06-30T09:01:23.385Z,97556.00
2023-06-30T09:05:26.136Z,97552.00
2023-06-30T09:09:34.110Z,97551.00
2023-06-30T09:13:39.175Z,97547.00
2023-06-30T09:17:40.566Z,97552.00
2023-06-30T09:21:42.223Z,97547.00
2023-06-30T09:25:43.708Z,97555.00
2023-06-30T09:29:54.422Z,97555.00
2023-06-30T09:33:59.406Z,97559.00
2023-06-30T09:38:00.476Z,97559.00
2023-06-30T09:42:01.727Z,97556.00
2023-06-30T09:46:03.148Z,97558.00
2023-06-30T09:50:09.644Z,97558.00
2023-06-30T09:54:11.043Z,97553.00
2023-06-30T09:58:12.292Z,97559.00
2023-06-30T10:02:15.582Z,97565.00
2023-06-30T10:06:26.198Z,97564.00
2023-06-30T10:10:28.467Z,97565.00
2023-06-30T10:14:32.195Z,97558.00
2023-06-30T10:18:39.908Z,97563.00
2023-06-30T10:22:43.240Z,97566.00
2023-06-30T10:26:46.906Z,97564.00
2023-06-30T10:30:51.365Z,97544.00
2023-06-30T10:34:52.916Z,97580.00
2023-06-30T10:38:54.695Z,97580.00
2023-06-30T10:42:57.741Z,97582.00
2023-06-30T10:46:59.349Z,97584.00
2023-06-30T10:51:04.553Z,97588.00
2023-06-30T10:55:07.115Z,97577.00
2023-06-30T10:59:09.497Z,97575.00
2023-06-30T11:03:11.057Z,97572.00
2023-06-30T11:07:18.707Z,97576.00
2023-06-30T11:11:19.810Z,97561.00
2023-06-30T11:15:36.478Z,97555.00
2023-06-30T11:19:37.795Z,97566.00
2023-06-30T11:23:40.198Z,97562.00
2023-06-30T11:27:41.437Z,97565.00
2023-06-30T11:31:42.607Z,97570.00
2023-06-30T11:35:47.568Z,97565.00
2023-06-30T11:39:57.732Z,97568.00
2023-06-30T11:43:58.786Z,97565.00
2023-06-30T11:48:00.757Z,97562.00
2023-06-30T11:52:02.560Z,97563.00
2023-06-30T11:56:03.962Z,97562.00
2023-06-30T12:00:14.498Z,97565.00
2023-06-30T12:04:19.515Z,97559.00
2023-06-30T12:08:21.148Z,97534.00
2023-06-30T12:12:28.466Z,97552.00
2023-06-30T12:16:41.507Z,97555.00
2023-06-30T12:20:44.544Z,97556.00
2023-06-30T12:24:50.322Z,97561.00
2023-06-30T12:28:51.364Z,97554.00
2023-06-30T12:33:00.574Z,97315.00
2023-06-30T12:37:02.424Z,97558.00
2023-06-30T12:41:03.605Z,97545.00
2023-06-30T12:45:06.093Z,97549.00
2023-06-30T12:49:07.108Z,97549.00
2023-06-30T12:53:08.430Z,97553.00
2023-06-30T12:57:09.576Z,97549.00
2023-06-30T13:01:10.592Z,97541.00
2023-06-30T13:05:11.614Z,97543.00
2023-06-30T13:09:13.156Z,97544.00
2023-06-30T13:13:14.329Z,97541.00
2023-06-30T13:17:15.452Z,97544.00
2023-06-30T13:21:17.122Z,97535.00
2023-06-30T13:25:19.425Z,97539.00
2023-06-30T13:29:20.543Z,97532.00
2023-06-30T13:33:22.979Z,97533.00
2023-06-30T13:37:24.066Z,97539.00
2023-06-30T13:41:26.571Z,97533.00
2023-06-30T13:45:27.758Z,97528.00
2023-06-30T13:49:28.906Z,97516.00
2023-06-30T13:53:30.030Z,97520.00
2023-06-30T13:57:31.096Z,97515.00
2023-06-30T14:01:32.259Z,97514.00
2023-06-30T14:05:33.372Z,97511.00
2023-06-30T14:09:34.505Z,97522.00
2023-06-30T14:13:35.554Z,97495.00
2023-06-30T14:17:36.669Z,97501.00
2023-06-30T14:21:37.824Z,97501.00
2023-06-30T14:25:38.881Z,97493.00
2023-06-30T14:29:41.893Z,97495.00
2023-06-30T14:33:43.065Z,97493.00
2023-06-30T14:37:44.170Z,97495.00
2023-06-30T14:41:53.764Z,97499.00
2023-06-30T14:45:48.475Z,97495.00
2023-06-30T14:49:49.646Z,97494.00
2023-06-30T14:53:50.671Z,97494.00
2023-06-30T14:57:51.672Z,97484.00
2023-06-30T15:01:52.715Z,97483.00
2023-06-30T15:05:53.883Z,97474.00
2023-06-30T15:09:54.977Z,97466.00
2023-06-30T15:13:56.001Z,97465.00
2023-06-30T15:18:16.976Z,97470.00
2023-06-30T15:22:18.225Z,97462.00
2023-06-30T15:26:19.357Z,97469.00
2023-06-30T15:30:21.024Z,97459.00
2023-06-30T15:34:22.339Z,97451.00
2023-06-30T15:38:24.872Z,97457.00
2023-06-30T15:42:26.312Z,97449.00
2023-06-30T15:46:27.637Z,97449.00
2023-06-30T15:50:29.788Z,97448.00
2023-06-30T15:54:31.021Z,97455.00
2023-06-30T15:58:32.124Z,97448.00
2023-06-30T16:02:36.227Z,97442.00
2023-06-30T16:06:37.329Z,97446.00
2023-06-30T16:10:38.806Z,97441.00
2023-06-30T16:14:40.060Z,97436.00
2023-06-30T16:18:41.210Z,97430.00
2023-06-30T16:22:42.344Z,97427.00
2023-06-30T16:26:44.387Z,97430.00
2023-06-30T16:30:45.626Z,97427.00
2023-06-30T16:34:46.894Z,97429.00
2023-06-30T16:38:48.094Z,97434.00
2023-06-30T16:42:49.897Z,97429.00
2023-06-30T16:46:50.984Z,97429.00
2023-06-30T16:50:52.183Z,97428.00
2023-06-30T16:54:53.224Z,97418.00
2023-06-30T16:58:54.444Z,97418.00
2023-06-30T17:02:56.033Z,97421.00
2023-06-30T17:06:57.524Z,97426.00
2023-06-30T17:10:58.699Z,97430.00
2023-06-30T17:14:59.840Z,97431.00
2023-06-30T17:19:01.023Z,97437.00
2023-06-30T17:23:02.286Z,97443.00
2023-06-30T17:27:03.586Z,97439.00
2023-06-30T17:31:04.999Z,97440.00
2023-06-30T17:35:07.903Z,97438.00
2023-06-30T17:39:09.001Z,97441.00
2023-06-30T17:43:12.300Z,97446.00
2023-06-30T17:47:13.392Z,97451.00
2023-06-30T17:51:14.675Z,97450.00
2023-06-30T17:55:15.710Z,97456.00
2023-06-30T17:59:17.361Z,97454.00
2023-06-30T18:03:18.972Z,97452.00
2023-06-30T18:07:19.979Z,97464.00
2023-06-30T18:11:21.194Z,97462.00
2023-06-30T18:15:22.474Z,97470.00
2023-06-30T18:19:23.932Z,97472.00
2023-06-30T18:23:26.294Z,97469.00
2023-06-30T18:27:27.390Z,97476.00
2023-06-30T18:31:28.550Z,97481.00
2023-06-30T18:35:30.002Z,97479.00
2023-06-30T18:39:31.046Z,97479.00
2023-06-30T18:43:32.257Z,97484.00
2023-06-30T18:47:33.448Z,97484.00
2023-06-30T18:51:34.856Z,97500.00
2023-06-30T18:55:36.030Z,97491.00
2023-06-30T18:59:37.212Z,97486.00
2023-06-30T19:03:38.662Z,97495.00
2023-06-30T19:07:40.267Z,97495.00
2023-06-30T19:11:41.312Z,97501.00
2023-06-30T19:15:42.431Z,97498.00
2023-06-30T19:19:45.301Z,97505.00
2023-06-30T19:23:46.467Z,97505.00
2023-06-30T19:27:47.486Z,97504.00
2023-06-30T19:31:48.864Z,97510.00
2023-06-30T19:35:52.059Z,97516.00
2023-06-30T19:39:53.252Z,97513.00
2023-06-30T19:43:54.658Z,97505.00
2023-06-30T19:47:55.894Z,97517.00
2023-06-30T19:51:58.894Z,97394.00
2023-06-30T19:56:00.089Z,97519.00
2023-06-30T20:00:01.227Z,97522.00
2023-06-30T20:04:02.637Z,97519.00
2023-06-30T20:08:04.258Z,97522.00
2023-06-30T20:12:08.696Z,97529.00
2023-06-30T20:16:09.919Z,97523.00
2023-06-30T20:20:13.246Z,97522.00
2023-06-30T20:24:15.832Z,97521.00
2023-06-30T20:28:18.752Z,97514.00
2023-06-30T20:32:20.588Z,97514.00
2023-06-30T20:36:21.825Z,97518.00
2023-06-30T20:40:24.030Z,97517.00
2023-06-30T20:44:25.701Z,97510.00
2023-06-30T20:48:26.793Z,97515.00
2023-06-30T20:52:27.801Z,97512.00
2023-06-30T20:56:28.930Z,97513.00
2023-06-30T21:00:30.588Z,97502.00
2023-06-30T21:04:31.768Z,97503.00
2023-06-30T21:08:32.939Z,97497.00
2023-06-30T21:12:36.002Z,97499.00
2023-06-30T21:16:37.259Z,97492.00
2023-06-30T21:20:38.353Z,97494.00
2023-06-30T21:24:39.512Z,97492.00
2023-06-30T21:28:40.657Z,97489.00
2023-06-30T21:32:41.988Z,97487.00
2023-06-30T21:36:43.124Z,97484.00
2023-06-30T21:40:44.223Z,97490.00
2023-06-30T21:44:45.653Z,97491.00
2023-06-30T21:48:49.091Z,97486.00
2023-06-30T21:52:50.349Z,97477.00
2023-06-30T21:56:51.506Z,97478.00
2023-06-30T22:00:52.920Z,97469.00
2023-06-30T22:04:54.281Z,97473.00
2023-06-30T22:08:57.532Z,97473.00
2023-06-30T22:12:58.353Z,97464.00
2023-06-30T22:16:59.521Z,97454.00
2023-06-30T22:21:00.540Z,97452.00
2023-06-30T22:25:01.815Z,97463.00
2023-06-30T22:29:02.954Z,97460.00
2023-06-30T22:33:04.393Z,97444.00
2023-06-30T22:37:05.847Z,97444.00
2023-06-30T22:41:07.103Z,97436.00
2023-06-30T22:45:08.841Z,97441.00
2023-06-30T22:49:09.842Z,97436.00
2023-06-30T22:53:11.490Z,97438.00
2023-06-30T22:57:12.618Z,97433.00
2023-06-30T23:01:13.831Z,97437.00
2023-06-30T23:05:14.955Z,97428.00
2023-06-30T23:09:16.114Z,97440.00
2023-06-30T23:13:17.403Z,97427.00
2023-06-30T23:17:20.418Z,97425.00
2023-06-30T23:21:21.680Z,97425.00
2023-06-30T23:25:23.287Z,97428.00
2023-06-30T23:29:26.308Z,97418.00
2023-06-30T23:33:28.264Z,97412.00
2023-06-30T23:37:29.417Z,97414.00
2023-06-30T23:41:30.440Z,97414.00
2023-06-30T23:45:31.458Z,97413.00
2023-06-30T23:49:32.681Z,97408.00
2023-06-30T23:53:33.809Z,97415.00
2023-06-30T23:57:34.778Z,97395.00
